Time;durP1;ratioP1;P1;durP2;ratioP2;P2;SDS_P1;SDS_P2;PMS_P1;PMS_P2;Temp;Humidity;BMP_temperature;BMP_pressure;BME280_temperature;BME280_humidity;BME280_pressure;Samples;Min_cycle;Max_cycle;Signal;HPM_P1;HPM_P2
2021/09/30 00:03:50;;;;;;;2.05;0.50;;;17.30;68.30;;;;;;20817827;28;20049;-78
2021/09/30 00:14:06;;;;;;;2.60;0.30;;;17.30;68.30;;;;;;20817147;28;20049;-78
2021/09/30 02:29:06;;;;;;;2.50;0.70;;;17.10;67.80;;;;;;20810969;28;20037;-77
2021/09/30 02:39:31;;;;;;;1.83;0.45;;;17.10;67.80;;;;;;20809881;28;20041;-77
2021/09/30 02:59:48;;;;;;;2.53;0.50;;;17.10;67.80;;;;;;20819711;28;20490;-77
2021/09/30 03:09:53;;;;;;;0.60;0.47;;;17.10;67.80;;;;;;20822293;28;20032;-76
2021/09/30 03:20:03;;;;;;;1.50;0.50;;;17.10;67.70;;;;;;20804953;28;20484;-76
2021/09/30 03:30:07;;;;;;;2.97;1.08;;;17.10;67.60;;;;;;20806507;28;20029;-78
2021/09/30 03:40:09;;;;;;;1.25;0.30;;;17.10;68.30;;;;;;20803807;28;20033;-76
2021/09/30 03:50:18;;;;;;;1.50;0.68;;;17.10;67.60;;;;;;20802454;28;20034;-76
2021/09/30 04:00:19;;;;;;;0.80;0.40;;;17.00;67.60;;;;;;20803482;28;20030;-76
2021/09/30 04:10:26;;;;;;;2.67;0.60;;;17.00;67.50;;;;;;20801864;28;20116;-77
2021/09/30 04:20:27;;;;;;;1.52;0.50;;;17.00;67.40;;;;;;20799276;28;20472;-76
2021/09/30 04:30:41;;;;;;;0.40;0.30;;;17.00;67.30;;;;;;20816713;28;20037;-77
2021/09/30 04:40:54;;;;;;;0.85;0.47;;;17.00;67.30;;;;;;20806939;28;20124;-83
2021/09/30 04:50:55;;;;;;;1.77;0.57;;;17.00;67.30;;;;;;20814284;28;20484;-75
2021/09/30 05:00:57;;;;;;;1.20;0.63;;;17.00;67.30;;;;;;20815834;28;20039;-77
2021/09/30 05:10:58;;;;;;;1.20;0.50;;;17.00;67.20;;;;;;20816001;28;20041;-79
2021/09/30 05:21:00;;;;;;;1.75;0.60;;;16.90;67.10;;;;;;20829036;28;20044;-78
2021/09/30 05:31:01;;;;;;;1.67;0.68;;;16.90;67.10;;;;;;20814903;28;20041;-83
2021/09/30 05:41:25;;;;;;;1.40;0.50;;;17.00;67.10;;;;;;20815756;28;20044;-82
2021/09/30 05:51:26;;;;;;;1.65;0.55;;;16.90;67.00;;;;;;20807614;28;20034;-76
2021/09/30 06:12:09;;;;;;;2.47;0.60;;;16.90;67.10;;;;;;20760559;28;20030;-77
2021/09/30 06:22:10;;;;;;;1.13;0.52;;;16.90;67.10;;;;;;20756868;28;20045;-76
2021/09/30 06:32:16;;;;;;;0.82;0.35;;;16.80;67.20;;;;;;20807152;28;20129;-76
2021/09/30 06:42:36;;;;;;;0.80;0.50;;;16.80;67.20;;;;;;20835947;28;20041;-77
2021/09/30 06:52:48;;;;;;;0.43;0.40;;;16.80;67.10;;;;;;20820215;28;20046;-78
2021/09/30 07:03:13;;;;;;;3.08;0.60;;;16.80;67.10;;;;;;20805971;28;20032;-76
2021/09/30 07:13:46;;;;;;;1.02;0.65;;;16.80;67.10;;;;;;20821764;28;20045;-76
2021/09/30 07:23:46;;;;;;;0.82;0.50;;;16.80;67.10;;;;;;20816767;28;20475;-77
2021/09/30 07:33:47;;;;;;;3.20;0.85;;;16.80;67.10;;;;;;20800700;28;20087;-77
2021/09/30 07:43:48;;;;;;;1.23;0.73;;;16.80;67.10;;;;;;20798476;28;20029;-76
2021/09/30 07:53:48;;;;;;;2.25;0.70;;;16.80;67.10;;;;;;20798851;28;20326;-76
2021/09/30 08:03:49;;;;;;;3.03;0.82;;;16.80;67.00;;;;;;20785879;28;20033;-77
2021/09/30 08:13:51;;;;;;;2.15;0.73;;;16.80;66.90;;;;;;20761496;28;20589;-75
2021/09/30 08:23:52;;;;;;;0.60;0.50;;;16.80;66.90;;;;;;20825841;28;20037;-77
2021/09/30 08:33:55;;;;;;;3.22;1.17;;;16.90;66.90;;;;;;20826474;28;20543;-77
2021/09/30 08:43:57;;;;;;;0.95;0.77;;;16.80;67.00;;;;;;20792488;28;20396;-77
2021/09/30 08:53:59;;;;;;;1.42;0.80;;;16.80;67.00;;;;;;20775787;28;20041;-76
2021/09/30 09:03:59;;;;;;;1.90;1.08;;;16.80;67.10;;;;;;20822480;28;20029;-76
2021/09/30 09:14:00;;;;;;;2.40;0.80;;;16.80;67.10;;;;;;20789998;28;20051;-76
2021/09/30 09:24:01;;;;;;;2.25;0.90;;;16.80;67.10;;;;;;20822558;28;20041;-77
2021/09/30 09:34:19;;;;;;;5.85;0.98;;;16.80;67.10;;;;;;20821002;28;20124;-75
2021/09/30 09:44:19;;;;;;;3.20;1.10;;;16.80;67.00;;;;;;20821041;28;20130;-76
2021/09/30 09:54:21;;;;;;;2.20;0.77;;;16.80;66.80;;;;;;20801689;28;20148;-79
2021/09/30 10:04:24;;;;;;;1.95;1.15;;;16.80;66.90;;;;;;20793924;28;20103;-75
2021/09/30 10:14:25;;;;;;;2.08;1.00;;;16.80;66.80;;;;;;20747125;28;20514;-76
2021/09/30 10:34:47;;;;;;;2.00;0.82;;;16.90;67.00;;;;;;20897791;22;20054;-76
2021/09/30 10:44:47;;;;;;;2.72;0.95;;;16.80;67.00;;;;;;20740391;28;20034;-74
2021/09/30 10:55:00;;;;;;;1.38;0.90;;;16.80;67.00;;;;;;20696555;28;20042;-76
2021/09/30 11:05:08;;;;;;;2.60;0.77;;;16.90;67.10;;;;;;20739139;28;20037;-77
2021/09/30 11:15:09;;;;;;;4.05;1.40;;;16.90;67.00;;;;;;20716196;28;20048;-78
2021/09/30 11:25:09;;;;;;;2.42;1.17;;;16.80;66.80;;;;;;20705761;28;20054;-78
2021/09/30 11:35:10;;;;;;;2.95;0.98;;;16.80;66.80;;;;;;20706536;28;20380;-78
2021/09/30 11:45:22;;;;;;;1.80;0.70;;;16.80;66.70;;;;;;20722696;28;20092;-78
2021/09/30 11:55:27;;;;;;;3.45;0.95;;;16.80;66.70;;;;;;20715288;28;20054;-77
2021/09/30 12:05:31;;;;;;;2.78;0.75;;;16.80;66.50;;;;;;20720793;28;20054;-77
2021/09/30 12:15:31;;;;;;;1.50;0.57;;;16.80;66.40;;;;;;20664300;28;20096;-78
2021/09/30 12:25:33;;;;;;;4.22;0.77;;;16.80;66.20;;;;;;20692124;28;20053;-78
2021/09/30 12:35:39;;;;;;;1.33;0.70;;;16.80;66.00;;;;;;20716524;28;20042;-75
2021/09/30 12:45:42;;;;;;;1.37;0.63;;;16.80;65.70;;;;;;20729759;28;20034;-74
2021/09/30 12:55:43;;;;;;;0.88;0.57;;;16.80;65.50;;;;;;20743477;28;20038;-75
2021/09/30 13:05:52;;;;;;;0.98;0.52;;;16.80;65.30;;;;;;20686113;28;20029;-76
2021/09/30 13:15:53;;;;;;;1.50;0.60;;;16.80;65.20;;;;;;20745170;28;20512;-76
2021/09/30 13:25:53;;;;;;;1.52;0.60;;;16.80;65.80;;;;;;20725442;28;20068;-75
2021/09/30 13:35:54;;;;;;;1.20;0.50;;;16.80;65.30;;;;;;20742551;28;20030;-75
2021/09/30 13:45:54;;;;;;;1.13;0.52;;;16.80;65.30;;;;;;20715502;28;20053;-74
2021/09/30 13:55:55;;;;;;;4.38;0.75;;;16.80;65.30;;;;;;20679253;28;20046;-74
2021/09/30 14:05:57;;;;;;;4.43;1.23;;;16.80;65.20;;;;;;20667136;28;20045;-74
2021/09/30 14:15:58;;;;;;;3.45;1.10;;;16.80;65.10;;;;;;20685426;28;20045;-75
2021/09/30 14:25:59;;;;;;;0.75;0.30;;;16.80;64.70;;;;;;20710845;28;20038;-79
2021/09/30 14:36:00;;;;;;;4.97;1.08;;;16.80;64.40;;;;;;20712200;28;20060;-78
2021/09/30 14:46:00;;;;;;;3.92;0.70;;;16.80;64.30;;;;;;20709010;28;20512;-80
2021/09/30 14:56:03;;;;;;;1.67;0.40;;;16.80;64.40;;;;;;20692514;28;20043;-78
2021/09/30 15:06:10;;;;;;;3.35;0.57;;;16.90;64.40;;;;;;20671296;28;20057;-78
2021/09/30 15:16:11;;;;;;;5.57;0.90;;;16.90;64.50;;;;;;20713228;28;20045;-77
2021/09/30 15:26:16;;;;;;;1.77;0.50;;;16.90;64.60;;;;;;20741021;28;20080;-79
2021/09/30 15:36:17;;;;;;;1.52;1.15;;;17.00;64.50;;;;;;20723620;28;20050;-74
2021/09/30 15:46:18;;;;;;;1.65;0.80;;;17.00;64.70;;;;;;20700417;28;20037;-75
2021/09/30 15:56:18;;;;;;;3.13;0.60;;;17.00;64.60;;;;;;20731023;28;20117;-76
2021/09/30 16:06:19;;;;;;;4.50;0.73;;;17.10;64.80;;;;;;20722251;28;20041;-75
2021/09/30 16:16:20;;;;;;;5.78;1.17;;;17.00;64.80;;;;;;20728748;28;20062;-75
2021/09/30 16:26:20;;;;;;;0.85;0.50;;;17.10;65.00;;;;;;20712649;28;20044;-76
2021/09/30 16:36:21;;;;;;;1.67;0.53;;;17.10;65.20;;;;;;20728234;28;20054;-74
2021/09/30 16:46:22;;;;;;;1.25;0.52;;;17.00;65.40;;;;;;20731429;28;20690;-76
2021/09/30 16:56:22;;;;;;;0.50;0.45;;;17.00;65.50;;;;;;20728038;28;20096;-76
2021/09/30 17:06:27;;;;;;;2.55;1.10;;;17.00;65.70;;;;;;20709058;28;20457;-74
2021/09/30 17:16:29;;;;;;;1.38;0.65;;;16.90;65.70;;;;;;20731612;28;20042;-74
2021/09/30 17:26:31;;;;;;;1.25;0.77;;;16.90;65.80;;;;;;20741248;28;20135;-75
2021/09/30 17:36:32;;;;;;;1.40;0.70;;;16.90;65.90;;;;;;20740348;28;20037;-75
2021/09/30 17:46:34;;;;;;;1.98;0.50;;;16.90;66.70;;;;;;20723514;28;20084;-74
2021/09/30 17:56:36;;;;;;;5.70;0.77;;;16.90;66.10;;;;;;20707571;28;20137;-75
2021/09/30 18:06:36;;;;;;;2.03;1.05;;;16.90;66.10;;;;;;20722348;28;20038;-75
2021/09/30 18:16:37;;;;;;;3.33;0.55;;;16.90;66.10;;;;;;20705723;28;20137;-74
2021/09/30 18:26:38;;;;;;;1.30;0.68;;;16.90;66.30;;;;;;20724262;28;20042;-74
2021/09/30 18:36:44;;;;;;;0.63;0.47;;;16.80;66.30;;;;;;20738793;28;20089;-75
2021/09/30 18:46:45;;;;;;;1.42;0.55;;;16.80;66.40;;;;;;20754374;28;20292;-75
2021/09/30 18:56:46;;;;;;;2.08;0.73;;;16.80;66.50;;;;;;20736840;28;20472;-75
2021/09/30 19:06:48;;;;;;;0.82;0.43;;;16.80;66.50;;;;;;20752522;28;20387;-73
2021/09/30 19:16:49;;;;;;;2.25;0.60;;;16.80;66.60;;;;;;20770383;28;20041;-76
2021/09/30 19:26:50;;;;;;;1.70;0.60;;;16.80;66.70;;;;;;20799958;28;20132;-73
2021/09/30 19:36:50;;;;;;;0.63;0.47;;;16.80;66.70;;;;;;20799045;28;20335;-74
2021/09/30 19:46:51;;;;;;;1.33;0.50;;;16.80;66.70;;;;;;20798186;28;20049;-74
2021/09/30 19:56:51;;;;;;;1.58;0.50;;;16.80;66.70;;;;;;20798472;28;20479;-75
2021/09/30 20:06:52;;;;;;;0.68;0.52;;;16.80;66.70;;;;;;20813814;28;20034;-74
2021/09/30 20:16:53;;;;;;;0.93;0.70;;;16.80;66.70;;;;;;20777078;28;20040;-74
2021/09/30 20:26:54;;;;;;;0.45;0.30;;;16.80;66.80;;;;;;20754249;28;20289;-75
2021/09/30 20:36:56;;;;;;;1.23;0.60;;;16.80;66.80;;;;;;20766482;28;20037;-74
2021/09/30 20:46:58;;;;;;;1.73;0.80;;;16.80;66.90;;;;;;20772551;28;20113;-75
2021/09/30 20:56:59;;;;;;;1.10;0.50;;;16.80;67.00;;;;;;20780693;28;20154;-75
2021/09/30 21:06:59;;;;;;;2.00;0.55;;;16.80;67.00;;;;;;20753925;28;20043;-75
2021/09/30 21:17:00;;;;;;;2.05;0.68;;;16.80;67.00;;;;;;20791739;28;20099;-74
2021/09/30 21:27:01;;;;;;;2.57;0.60;;;16.80;67.10;;;;;;20809452;28;20067;-74
2021/09/30 21:37:02;;;;;;;0.63;0.50;;;16.80;67.10;;;;;;20801616;28;20300;-75
2021/09/30 21:47:03;;;;;;;0.85;0.40;;;16.80;67.10;;;;;;20806241;28;20299;-74
2021/09/30 21:57:04;;;;;;;1.10;0.40;;;16.80;67.10;;;;;;20789902;28;20537;-74
2021/09/30 22:07:06;;;;;;;0.57;0.30;;;16.80;67.10;;;;;;20805079;28;20380;-74
2021/09/30 22:17:07;;;;;;;3.13;0.60;;;16.70;67.10;;;;;;20804742;28;20046;-74
2021/09/30 22:27:07;;;;;;;0.82;0.40;;;16.70;67.10;;;;;;20804824;28;20132;-74
2021/09/30 22:37:13;;;;;;;1.35;0.50;;;16.70;67.10;;;;;;20821242;28;20037;-74
2021/09/30 22:47:13;;;;;;;1.00;0.60;;;16.70;67.10;;;;;;20788670;28;20037;-74
2021/09/30 22:57:14;;;;;;;2.75;0.70;;;16.70;67.10;;;;;;20787339;28;20120;-74
2021/09/30 23:07:15;;;;;;;2.72;0.70;;;16.70;67.10;;;;;;20803510;28;20037;-74
2021/09/30 23:17:15;;;;;;;0.95;0.50;;;16.70;67.10;;;;;;20812210;28;20044;-74
2021/09/30 23:27:16;;;;;;;2.33;0.70;;;16.70;67.10;;;;;;20834701;28;20041;-74
2021/09/30 23:37:16;;;;;;;1.15;0.50;;;16.70;67.10;;;;;;20816419;28;20475;-74
2021/09/30 23:47:17;;;;;;;1.02;0.32;;;16.70;67.10;;;;;;20832390;28;20037;-73
2021/09/30 23:57:18;;;;;;;0.85;0.30;;;16.70;67.10;;;;;;20798555;28;20072;-74
